createdAt,value
2023-05-06T00:00:56.512Z,1.05
2023-05-06T00:03:23.137Z,1.30
2023-05-06T00:05:49.597Z,1.15
2023-05-06T00:08:16.370Z,1.60
2023-05-06T00:10:42.999Z,1.50
2023-05-06T00:13:09.342Z,1.00
2023-05-06T00:15:36.301Z,1.27
2023-05-06T00:18:02.938Z,1.00
2023-05-06T00:20:29.513Z,1.47
2023-05-06T00:22:55.968Z,1.30
2023-05-06T00:25:23.466Z,1.45
2023-05-06T00:27:49.905Z,1.40
2023-05-06T00:30:16.240Z,1.33
2023-05-06T00:32:42.714Z,1.47
2023-05-06T00:35:09.577Z,1.33
2023-05-06T00:37:36.056Z,1.77
2023-05-06T00:40:03.489Z,1.88
2023-05-06T00:42:30.040Z,1.95
2023-05-06T00:44:56.392Z,2.70
2023-05-06T00:47:23.249Z,2.25
2023-05-06T00:49:50.706Z,1.88
2023-05-06T00:52:18.849Z,1.70
2023-05-06T00:54:45.441Z,1.90
2023-05-06T00:57:11.882Z,1.33
2023-05-06T00:59:39.054Z,1.50
2023-05-06T01:02:05.464Z,2.15
2023-05-06T01:04:32.143Z,2.70
2023-05-06T01:07:08.242Z,1.95
2023-05-06T01:10:01.233Z,2.87
2023-05-06T01:12:56.513Z,4.43
2023-05-06T01:15:36.438Z,3.78
2023-05-06T01:18:10.213Z,4.20
2023-05-06T01:20:38.398Z,4.93
2023-05-06T01:23:14.850Z,4.50
2023-05-06T01:25:41.914Z,4.75
2023-05-06T01:28:12.772Z,3.20
2023-05-06T01:30:49.882Z,4.28
2023-05-06T01:33:26.286Z,5.15
2023-05-06T01:36:08.366Z,4.53
2023-05-06T01:38:48.856Z,3.95
2023-05-06T01:41:16.995Z,4.78
2023-05-06T01:43:47.354Z,3.83
2023-05-06T01:46:17.859Z,3.65
2023-05-06T01:48:46.136Z,2.80
2023-05-06T01:51:12.919Z,2.40
2023-05-06T01:53:39.259Z,2.67
2023-05-06T01:56:05.864Z,2.92
2023-05-06T01:58:32.290Z,3.53
2023-05-06T02:00:58.657Z,3.00
2023-05-06T02:03:25.644Z,2.88
2023-05-06T02:05:52.182Z,2.97
2023-05-06T02:08:18.676Z,3.05
2023-05-06T02:10:45.168Z,3.30
2023-05-06T02:13:11.708Z,2.80
2023-05-06T02:15:38.119Z,4.85
2023-05-06T02:18:05.084Z,1.45
2023-05-06T02:20:31.433Z,1.20
2023-05-06T02:22:57.785Z,1.45
2023-05-06T02:25:24.105Z,1.47
2023-05-06T02:27:50.516Z,1.48
2023-05-06T02:30:16.933Z,2.05
2023-05-06T02:32:43.273Z,2.42
2023-05-06T02:35:09.892Z,2.03
2023-05-06T02:37:36.742Z,1.40
2023-05-06T02:40:03.077Z,1.15
2023-05-06T02:42:29.398Z,1.20
2023-05-06T02:44:55.901Z,0.90
2023-05-06T02:47:22.304Z,1.17
2023-05-06T02:49:48.655Z,1.17
2023-05-06T02:52:15.142Z,3.15
2023-05-06T02:54:41.489Z,1.50
2023-05-06T02:57:07.924Z,1.77
2023-05-06T02:59:35.425Z,1.10
2023-05-06T03:02:01.962Z,2.20
2023-05-06T03:04:28.279Z,1.52
2023-05-06T03:06:54.694Z,2.25
2023-05-06T03:09:21.548Z,2.65
2023-05-06T03:11:47.954Z,4.28
2023-05-06T03:14:14.284Z,2.90
2023-05-06T03:16:40.662Z,2.22
2023-05-06T03:19:07.020Z,2.58
2023-05-06T03:21:33.828Z,2.28
2023-05-06T03:24:00.197Z,2.85
2023-05-06T03:26:26.583Z,2.57
2023-05-06T03:28:52.950Z,1.98
2023-05-06T03:31:19.599Z,4.85
2023-05-06T03:33:45.948Z,1.85
2023-05-06T03:36:14.880Z,1.65
2023-05-06T03:38:41.343Z,2.73
2023-05-06T03:41:08.496Z,1.35
2023-05-06T03:43:34.926Z,1.35
2023-05-06T03:46:01.346Z,2.42
2023-05-06T03:48:27.714Z,1.35
2023-05-06T03:50:54.121Z,0.90
2023-05-06T03:53:20.577Z,1.42
2023-05-06T03:55:46.906Z,1.17
2023-05-06T03:58:13.281Z,0.90
2023-05-06T04:00:39.614Z,1.30
2023-05-06T04:03:06.006Z,1.50
2023-05-06T04:05:32.449Z,1.63
2023-05-06T04:07:58.792Z,1.65
2023-05-06T04:10:25.179Z,1.55
2023-05-06T04:12:52.294Z,1.83
2023-05-06T04:15:18.739Z,1.57
2023-05-06T04:17:45.201Z,2.05
2023-05-06T04:20:11.901Z,1.40
2023-05-06T04:22:38.572Z,2.20
2023-05-06T04:25:05.352Z,2.28
2023-05-06T04:27:32.169Z,2.73
2023-05-06T04:29:58.603Z,3.50
2023-05-06T04:32:27.604Z,2.70
2023-05-06T04:34:54.057Z,2.85
2023-05-06T04:37:21.051Z,4.05
2023-05-06T04:39:47.534Z,3.60
2023-05-06T04:42:14.784Z,5.35
2023-05-06T04:44:42.934Z,3.95
2023-05-06T04:47:09.574Z,4.45
2023-05-06T04:49:36.108Z,3.40
2023-05-06T04:52:02.477Z,4.03
2023-05-06T04:54:29.023Z,2.97
2023-05-06T04:56:55.712Z,3.30
2023-05-06T04:59:22.045Z,2.97
2023-05-06T05:01:48.682Z,3.58
2023-05-06T05:04:15.216Z,4.53
2023-05-06T05:06:41.629Z,4.55
2023-05-06T05:09:08.084Z,4.47
2023-05-06T05:11:37.624Z,4.50
2023-05-06T05:14:04.055Z,4.90
2023-05-06T05:16:30.476Z,5.87
2023-05-06T05:18:57.156Z,6.88
2023-05-06T05:21:23.479Z,6.63
2023-05-06T05:23:49.792Z,7.05
2023-05-06T05:26:16.188Z,6.50
2023-05-06T05:28:43.376Z,7.83
2023-05-06T05:31:10.608Z,7.65
2023-05-06T05:33:37.184Z,7.38
2023-05-06T05:36:04.183Z,7.65
2023-05-06T05:38:30.566Z,8.20
2023-05-06T05:40:57.121Z,8.30
2023-05-06T05:43:25.872Z,9.05
2023-05-06T05:45:52.316Z,7.78
2023-05-06T05:48:18.675Z,8.95
2023-05-06T05:50:45.856Z,9.35
2023-05-06T05:53:12.385Z,9.53
2023-05-06T05:55:38.714Z,10.25
2023-05-06T05:58:05.029Z,9.75
2023-05-06T06:00:31.644Z,10.02
2023-05-06T06:02:58.252Z,11.05
2023-05-06T06:05:24.662Z,10.27
2023-05-06T06:07:51.003Z,10.60
2023-05-06T06:10:17.393Z,11.07
2023-05-06T06:12:44.582Z,12.00
2023-05-06T06:15:11.712Z,11.57
2023-05-06T06:17:38.493Z,11.87
2023-05-06T06:20:05.881Z,11.05
2023-05-06T06:22:32.356Z,11.30
2023-05-06T06:24:58.756Z,12.32
2023-05-06T06:27:25.136Z,11.38
2023-05-06T06:29:51.477Z,11.77
2023-05-06T06:32:18.027Z,12.07
2023-05-06T06:34:44.335Z,11.73
2023-05-06T06:37:11.608Z,12.30
2023-05-06T06:39:38.190Z,12.63
2023-05-06T06:42:04.774Z,12.47
2023-05-06T06:44:31.076Z,12.55
2023-05-06T06:46:57.418Z,12.63
2023-05-06T06:49:23.809Z,12.73
2023-05-06T06:51:51.642Z,12.82
2023-05-06T06:54:18.054Z,12.53
2023-05-06T06:56:44.448Z,13.15
2023-05-06T06:59:10.887Z,12.52
2023-05-06T07:01:37.320Z,14.27
2023-05-06T07:04:05.370Z,13.63
2023-05-06T07:06:33.392Z,13.73
2023-05-06T07:08:59.748Z,13.75
2023-05-06T07:11:26.295Z,14.45
2023-05-06T07:13:52.605Z,14.02
2023-05-06T07:16:19.117Z,13.90
2023-05-06T07:18:45.598Z,13.63
2023-05-06T07:21:11.973Z,13.07
2023-05-06T07:23:38.357Z,12.93
2023-05-06T07:26:04.752Z,11.50
2023-05-06T07:28:31.091Z,11.73
2023-05-06T07:30:57.474Z,11.63
2023-05-06T07:33:23.802Z,11.13
2023-05-06T07:35:50.128Z,12.85
2023-05-06T07:38:16.475Z,12.07
2023-05-06T07:40:42.793Z,12.45
2023-05-06T07:43:09.592Z,12.53
2023-05-06T07:45:36.173Z,12.45
2023-05-06T07:48:02.574Z,12.65
2023-05-06T07:50:28.979Z,11.38
2023-05-06T07:52:55.303Z,12.52
2023-05-06T07:55:21.615Z,12.57
2023-05-06T07:57:49.086Z,12.38
2023-05-06T08:00:15.599Z,12.75
2023-05-06T08:02:44.460Z,12.60
2023-05-06T08:05:11.455Z,12.43
2023-05-06T08:07:39.871Z,11.57
2023-05-06T08:10:07.064Z,11.73
2023-05-06T08:12:35.840Z,12.82
2023-05-06T08:15:03.310Z,12.50
2023-05-06T08:17:29.754Z,12.60
2023-05-06T08:19:56.137Z,11.93
2023-05-06T08:22:22.476Z,12.38
2023-05-06T08:24:48.773Z,12.07
2023-05-06T08:27:15.302Z,12.88
2023-05-06T08:29:41.657Z,13.05
2023-05-06T08:32:08.007Z,13.37
2023-05-06T08:34:34.882Z,13.27
2023-05-06T08:37:02.005Z,13.00
2023-05-06T08:39:28.866Z,13.27
2023-05-06T08:41:57.714Z,13.35
2023-05-06T08:44:25.366Z,14.00
2023-05-06T08:46:51.869Z,13.75
2023-05-06T08:49:18.206Z,14.65
2023-05-06T08:51:45.415Z,12.00
2023-05-06T08:54:13.130Z,13.45
2023-05-06T08:56:47.259Z,13.00
2023-05-06T08:59:13.850Z,16.27
2023-05-06T09:01:40.778Z,22.42
2023-05-06T09:04:08.171Z,19.33
2023-05-06T09:06:34.514Z,20.23
2023-05-06T09:09:00.835Z,18.17
2023-05-06T09:11:32.210Z,17.95
2023-05-06T09:14:16.201Z,14.68
2023-05-06T09:16:47.226Z,13.68
2023-05-06T09:19:14.764Z,14.00
2023-05-06T09:21:43.441Z,13.33
2023-05-06T09:24:10.934Z,13.13
2023-05-06T09:26:38.825Z,11.90
2023-05-06T09:29:06.136Z,13.30
2023-05-06T09:31:33.151Z,13.40
2023-05-06T09:34:00.887Z,13.13
2023-05-06T09:36:28.257Z,13.70
2023-05-06T09:38:55.785Z,13.15
2023-05-06T09:41:27.428Z,13.00
2023-05-06T09:43:55.243Z,12.75
2023-05-06T09:46:23.032Z,12.63
2023-05-06T09:48:54.445Z,12.93
2023-05-06T09:51:21.395Z,14.05
2023-05-06T09:53:48.136Z,13.18
2023-05-06T09:56:15.677Z,13.20
2023-05-06T09:58:42.498Z,13.03
2023-05-06T10:01:17.118Z,13.30
2023-05-06T10:03:51.506Z,12.00
2023-05-06T10:06:19.139Z,13.18
2023-05-06T10:08:47.786Z,10.82
2023-05-06T10:11:15.100Z,11.03
2023-05-06T10:13:42.781Z,11.10
2023-05-06T10:16:10.792Z,13.07
2023-05-06T10:18:38.970Z,12.93
2023-05-06T10:21:09.808Z,11.27
2023-05-06T10:23:49.045Z,10.90
2023-05-06T10:26:16.975Z,9.60
2023-05-06T10:28:44.744Z,12.27
2023-05-06T10:31:14.991Z,11.07
2023-05-06T10:33:47.482Z,10.57
2023-05-06T10:36:20.000Z,9.70
2023-05-06T10:38:50.550Z,9.27
2023-05-06T10:41:17.843Z,9.70
2023-05-06T10:43:45.169Z,8.90
2023-05-06T10:46:16.509Z,7.43
2023-05-06T10:49:04.387Z,8.73
2023-05-06T10:51:35.042Z,8.07
2023-05-06T10:54:19.388Z,6.95
2023-05-06T10:56:48.708Z,5.35
2023-05-06T10:59:20.198Z,5.68
2023-05-06T11:01:55.185Z,6.83
2023-05-06T11:04:22.373Z,5.97
2023-05-06T11:06:50.546Z,5.65
2023-05-06T11:09:19.023Z,4.95
2023-05-06T11:11:51.829Z,5.70
2023-05-06T11:14:35.559Z,5.80
2023-05-06T11:17:06.969Z,5.65
2023-05-06T11:19:35.380Z,6.22
2023-05-06T11:22:03.890Z,6.07
2023-05-06T11:24:41.599Z,5.97
2023-05-06T11:27:09.418Z,5.30
2023-05-06T11:29:36.008Z,6.32
2023-05-06T11:32:03.772Z,6.65
2023-05-06T11:34:31.801Z,7.70
2023-05-06T11:37:06.408Z,7.43
2023-05-06T11:39:39.714Z,7.77
2023-05-06T11:42:08.620Z,7.80
2023-05-06T11:44:39.396Z,5.03
2023-05-06T11:47:07.836Z,5.57
2023-05-06T11:49:40.698Z,4.95
2023-05-06T11:52:11.956Z,6.10
2023-05-06T11:54:40.583Z,6.70
2023-05-06T11:57:07.756Z,6.10
2023-05-06T11:59:40.261Z,6.53
2023-05-06T12:02:12.570Z,6.03
2023-05-06T12:04:43.920Z,5.90
2023-05-06T12:07:14.981Z,5.47
2023-05-06T12:09:49.505Z,5.07
2023-05-06T12:12:19.153Z,6.07
2023-05-06T12:14:47.298Z,4.60
2023-05-06T12:17:14.617Z,5.03
2023-05-06T12:19:41.068Z,5.93
2023-05-06T12:22:21.697Z,6.30
2023-05-06T12:24:48.916Z,5.10
2023-05-06T12:27:30.930Z,5.63
2023-05-06T12:29:57.331Z,4.97
2023-05-06T12:32:23.734Z,6.38
2023-05-06T12:34:50.285Z,6.93
2023-05-06T12:37:30.553Z,6.85
2023-05-06T12:39:59.153Z,7.20
2023-05-06T12:42:34.115Z,7.73
2023-05-06T12:45:13.339Z,7.78
2023-05-06T12:47:39.793Z,8.98
2023-05-06T12:50:06.679Z,8.55
2023-05-06T12:52:33.306Z,8.27
2023-05-06T12:55:01.541Z,9.20
2023-05-06T12:57:27.894Z,9.68
2023-05-06T12:59:56.088Z,8.68
2023-05-06T13:02:22.664Z,9.63
2023-05-06T13:04:49.405Z,8.57
2023-05-06T13:07:15.828Z,8.47
2023-05-06T13:09:42.191Z,8.43
2023-05-06T13:12:08.555Z,9.48
2023-05-06T13:14:36.858Z,8.23
2023-05-06T13:17:06.722Z,8.80
2023-05-06T13:19:33.632Z,8.03
2023-05-06T13:22:01.165Z,7.82
2023-05-06T13:24:28.152Z,8.35
2023-05-06T13:26:56.246Z,6.75
2023-05-06T13:29:23.423Z,8.45
2023-05-06T13:31:49.846Z,7.77
2023-05-06T13:34:16.219Z,8.25
2023-05-06T13:36:43.670Z,8.43
2023-05-06T13:39:10.028Z,7.78
2023-05-06T13:41:36.373Z,4.15
2023-05-06T13:44:02.906Z,4.53
2023-05-06T13:46:29.268Z,4.00
2023-05-06T13:48:55.665Z,3.50
2023-05-06T13:51:22.025Z,3.90
2023-05-06T13:53:48.377Z,3.95
2023-05-06T13:56:14.711Z,3.63
2023-05-06T13:58:41.226Z,2.80
2023-05-06T14:01:07.625Z,2.88
2023-05-06T14:03:34.018Z,2.30
2023-05-06T14:06:01.183Z,2.30
2023-05-06T14:08:27.546Z,1.70
2023-05-06T14:10:53.856Z,1.70
2023-05-06T14:13:20.322Z,2.40
2023-05-06T14:15:47.029Z,2.50
2023-05-06T14:18:13.473Z,2.30
2023-05-06T14:20:39.803Z,2.43
2023-05-06T14:23:06.934Z,2.40
2023-05-06T14:25:33.333Z,2.53
2023-05-06T14:27:59.868Z,1.80
2023-05-06T14:30:26.336Z,1.83
2023-05-06T14:32:52.704Z,1.83
2023-05-06T14:35:19.124Z,1.70
2023-05-06T14:37:45.541Z,1.88
2023-05-06T14:40:12.108Z,1.50
2023-05-06T14:42:38.537Z,1.80
2023-05-06T14:45:06.047Z,1.90
2023-05-06T14:47:32.654Z,1.42
2023-05-06T14:49:59.136Z,1.63
2023-05-06T14:52:25.604Z,2.15
2023-05-06T14:54:51.996Z,1.70
2023-05-06T14:57:18.341Z,1.87
2023-05-06T14:59:44.683Z,2.10
2023-05-06T15:02:11.173Z,1.90
2023-05-06T15:04:37.545Z,3.30
2023-05-06T15:07:04.158Z,2.40
2023-05-06T15:09:30.954Z,2.07
2023-05-06T15:11:57.589Z,1.90
2023-05-06T15:14:24.077Z,2.20
2023-05-06T15:16:50.477Z,2.10
2023-05-06T15:19:16.840Z,2.20
2023-05-06T15:21:44.045Z,1.77
2023-05-06T15:24:10.362Z,2.17
2023-05-06T15:26:36.705Z,2.75
2023-05-06T15:29:03.336Z,2.17
2023-05-06T15:31:31.265Z,2.45
2023-05-06T15:34:00.327Z,2.20
2023-05-06T15:36:27.569Z,2.10
2023-05-06T15:39:00.370Z,1.80
2023-05-06T15:41:29.396Z,1.92
2023-05-06T15:44:00.287Z,1.80
2023-05-06T15:46:27.768Z,1.57
2023-05-06T15:49:15.656Z,1.90
2023-05-06T15:51:41.269Z,2.13
2023-05-06T15:54:08.111Z,2.28
2023-05-06T15:56:40.574Z,2.50
2023-05-06T15:59:08.253Z,2.50
2023-05-06T16:02:04.875Z,2.00
2023-05-06T16:04:21.486Z,2.33
2023-05-06T16:06:48.070Z,1.65
2023-05-06T16:09:14.431Z,2.00
2023-05-06T16:11:41.180Z,1.57
2023-05-06T16:14:07.486Z,1.92
2023-05-06T16:16:33.836Z,1.70
2023-05-06T16:19:00.303Z,1.70
2023-05-06T16:21:27.045Z,1.75
2023-05-06T16:23:53.570Z,1.77
2023-05-06T16:26:19.918Z,1.85
2023-05-06T16:28:46.364Z,1.73
2023-05-06T16:31:12.727Z,1.85
2023-05-06T16:33:39.163Z,2.10
2023-05-06T16:36:06.004Z,1.87
2023-05-06T16:38:32.377Z,1.77
2023-05-06T16:40:59.114Z,1.77
2023-05-06T16:43:25.623Z,2.10
2023-05-06T16:45:52.192Z,1.67
2023-05-06T16:48:18.712Z,2.10
2023-05-06T16:50:45.536Z,1.95
2023-05-06T16:53:12.116Z,1.65
2023-05-06T16:55:38.578Z,2.13
2023-05-06T16:58:05.007Z,1.50
2023-05-06T17:00:31.929Z,1.57
2023-05-06T17:02:58.576Z,1.92
2023-05-06T17:05:25.446Z,1.52
2023-05-06T17:07:52.582Z,1.40
2023-05-06T17:10:19.048Z,1.70
2023-05-06T17:12:45.394Z,1.40
2023-05-06T17:15:12.142Z,1.48
2023-05-06T17:17:39.808Z,1.30
2023-05-06T17:20:07.195Z,1.30
2023-05-06T17:22:33.661Z,1.30
2023-05-06T17:25:00.035Z,1.70
2023-05-06T17:27:26.400Z,1.30
2023-05-06T17:29:52.710Z,1.40
2023-05-06T17:32:19.719Z,1.40
2023-05-06T17:34:46.419Z,1.30
2023-05-06T17:37:12.800Z,1.30
2023-05-06T17:39:39.382Z,1.00
2023-05-06T17:42:05.723Z,1.10
2023-05-06T17:44:32.972Z,2.00
2023-05-06T17:46:59.776Z,1.70
2023-05-06T17:49:26.273Z,1.70
2023-05-06T17:51:52.857Z,1.67
2023-05-06T17:54:19.326Z,1.88
2023-05-06T17:56:50.292Z,1.50
2023-05-06T17:59:21.028Z,1.60
2023-05-06T18:01:47.910Z,2.23
2023-05-06T18:04:14.507Z,2.00
2023-05-06T18:06:42.048Z,1.77
2023-05-06T18:09:10.228Z,2.33
2023-05-06T18:11:37.960Z,2.50
2023-05-06T18:14:05.018Z,2.40
2023-05-06T18:16:31.984Z,2.33
2023-05-06T18:19:00.657Z,2.50
2023-05-06T18:21:27.678Z,3.03
2023-05-06T18:24:01.877Z,3.17
2023-05-06T18:26:44.106Z,3.20
2023-05-06T18:29:11.826Z,3.45
2023-05-06T18:31:38.263Z,3.65
2023-05-06T18:34:04.667Z,4.45
2023-05-06T18:36:31.107Z,3.95
2023-05-06T18:38:57.466Z,4.23
2023-05-06T18:41:24.934Z,4.72
2023-05-06T18:43:51.313Z,4.38
2023-05-06T18:46:17.778Z,4.47
2023-05-06T18:48:44.890Z,5.57
2023-05-06T18:51:16.914Z,4.63
2023-05-06T18:53:44.520Z,5.50
2023-05-06T18:56:11.214Z,4.47
2023-05-06T18:58:39.223Z,5.32
2023-05-06T19:01:10.611Z,5.53
2023-05-06T19:03:38.179Z,5.37
2023-05-06T19:06:08.969Z,5.57
2023-05-06T19:08:37.180Z,5.90
2023-05-06T19:11:03.607Z,5.95
2023-05-06T19:13:30.838Z,6.03
2023-05-06T19:15:57.195Z,6.43
2023-05-06T19:18:23.604Z,6.32
2023-05-06T19:20:49.931Z,6.43
2023-05-06T19:23:16.353Z,6.13
2023-05-06T19:25:42.684Z,6.38
2023-05-06T19:28:09.551Z,6.63
2023-05-06T19:30:36.321Z,6.25
2023-05-06T19:33:03.545Z,6.80
2023-05-06T19:35:29.962Z,6.10
2023-05-06T19:37:56.592Z,6.47
2023-05-06T19:40:22.990Z,6.77
2023-05-06T19:42:49.611Z,7.10
2023-05-06T19:45:17.537Z,6.78
2023-05-06T19:47:45.596Z,6.55
2023-05-06T19:50:12.869Z,6.75
2023-05-06T19:52:39.514Z,6.10
2023-05-06T19:55:06.418Z,5.97
2023-05-06T19:57:33.591Z,6.32
2023-05-06T20:00:00.059Z,5.70
2023-05-06T20:02:26.587Z,5.95
2023-05-06T20:04:52.962Z,7.20
2023-05-06T20:07:20.976Z,6.93
2023-05-06T20:09:47.502Z,7.15
2023-05-06T20:12:13.914Z,7.55
2023-05-06T20:14:40.287Z,7.18
2023-05-06T20:17:06.628Z,6.63
2023-05-06T20:19:33.002Z,6.15
2023-05-06T20:22:00.245Z,6.93
2023-05-06T20:24:29.267Z,6.55
2023-05-06T20:26:57.812Z,6.95
2023-05-06T20:29:24.607Z,6.87
2023-05-06T20:31:51.027Z,6.70
2023-05-06T20:34:17.506Z,7.47
2023-05-06T20:36:44.043Z,6.85
2023-05-06T20:39:11.776Z,6.93
2023-05-06T20:41:38.292Z,7.90
2023-05-06T20:44:04.957Z,6.47
2023-05-06T20:46:32.823Z,6.68
2023-05-06T20:48:59.285Z,5.22
2023-05-06T20:51:27.830Z,6.40
2023-05-06T20:53:58.841Z,5.87
2023-05-06T20:56:26.181Z,6.25
2023-05-06T20:58:53.878Z,7.40
2023-05-06T21:01:22.850Z,5.82
2023-05-06T21:03:50.092Z,6.28
2023-05-06T21:06:17.604Z,6.07
2023-05-06T21:08:44.824Z,5.90
2023-05-06T21:11:11.172Z,6.32
2023-05-06T21:13:37.758Z,4.47
2023-05-06T21:16:04.553Z,4.70
2023-05-06T21:18:31.016Z,5.50
2023-05-06T21:20:57.707Z,6.40
2023-05-06T21:23:24.048Z,6.30
2023-05-06T21:25:50.369Z,6.43
2023-05-06T21:28:16.719Z,6.35
2023-05-06T21:30:44.159Z,6.07
2023-05-06T21:33:11.151Z,6.72
2023-05-06T21:35:37.802Z,5.80
2023-05-06T21:38:04.168Z,5.60
2023-05-06T21:40:30.475Z,5.78
2023-05-06T21:42:56.976Z,6.10
2023-05-06T21:45:23.299Z,5.97
2023-05-06T21:47:49.846Z,6.30
2023-05-06T21:50:16.322Z,5.45
2023-05-06T21:52:42.715Z,6.38
2023-05-06T21:55:09.498Z,7.07
2023-05-06T21:57:36.113Z,7.45
2023-05-06T22:00:08.445Z,6.75
2023-05-06T22:02:34.850Z,7.13
2023-05-06T22:05:01.253Z,7.20
2023-05-06T22:07:27.779Z,7.03
2023-05-06T22:09:54.103Z,7.38
2023-05-06T22:12:20.499Z,7.10
2023-05-06T22:14:47.100Z,7.25
2023-05-06T22:17:13.451Z,6.60
2023-05-06T22:19:40.792Z,6.73
2023-05-06T22:22:07.727Z,6.93
2023-05-06T22:24:34.275Z,7.68
2023-05-06T22:27:01.632Z,7.68
2023-05-06T22:29:28.163Z,7.05
2023-05-06T22:31:54.632Z,7.37
2023-05-06T22:34:21.019Z,7.40
2023-05-06T22:36:47.656Z,6.95
2023-05-06T22:39:13.993Z,7.10
2023-05-06T22:41:40.451Z,7.13
2023-05-06T22:44:06.766Z,7.43
2023-05-06T22:46:33.256Z,6.88
2023-05-06T22:49:00.085Z,7.45
2023-05-06T22:51:26.613Z,7.43
2023-05-06T22:53:52.993Z,6.55
2023-05-06T22:56:19.955Z,6.90
2023-05-06T22:58:46.366Z,7.15
2023-05-06T23:01:12.789Z,7.22
2023-05-06T23:03:39.218Z,7.85
2023-05-06T23:06:06.026Z,7.85
2023-05-06T23:08:32.764Z,7.80
2023-05-06T23:10:59.216Z,8.23
2023-05-06T23:13:26.365Z,8.38
2023-05-06T23:15:53.096Z,7.97
2023-05-06T23:18:20.566Z,9.20
2023-05-06T23:20:46.914Z,7.83
2023-05-06T23:23:13.304Z,7.72
2023-05-06T23:25:39.678Z,7.88
2023-05-06T23:28:06.012Z,7.78
2023-05-06T23:30:32.376Z,7.78
2023-05-06T23:32:58.786Z,7.97
2023-05-06T23:35:25.834Z,7.20
2023-05-06T23:37:52.168Z,7.03
2023-05-06T23:40:18.510Z,7.50
2023-05-06T23:42:44.845Z,6.85
2023-05-06T23:45:12.030Z,7.80
2023-05-06T23:47:38.642Z,6.30
2023-05-06T23:50:05.580Z,7.32
2023-05-06T23:52:31.986Z,6.95
2023-05-06T23:54:58.364Z,6.63
2023-05-06T23:57:24.771Z,6.97
2023-05-06T23:59:51.092Z,7.28
